Time;durP1;ratioP1;P1;durP2;ratioP2;P2;SDS_P1;SDS_P2;PMS_P1;PMS_P2;Temp;Humidity;BMP_temperature;BMP_pressure;BME280_temperature;BME280_humidity;BME280_pressure;Samples;Min_cycle;Max_cycle;Signal;HPM_P1;HPM_P2
2022/05/15 00:01:45;;;;;;;2.63;0.80;;;14.90;61.20;;;;;;5114049;28;20066;-72
2022/05/15 00:04:11;;;;;;;1.35;0.52;;;14.90;61.20;;;;;;5114148;28;20489;-73
2022/05/15 00:06:36;;;;;;;1.25;0.55;;;14.90;61.20;;;;;;5096504;28;20039;-74
2022/05/15 00:09:03;;;;;;;0.98;0.60;;;14.80;61.10;;;;;;5114151;28;20370;-74
2022/05/15 00:11:28;;;;;;;2.28;0.73;;;14.70;61.10;;;;;;5114149;28;20393;-73
2022/05/15 00:13:56;;;;;;;2.30;0.70;;;14.80;61.30;;;;;;5114185;28;20035;-74
2022/05/15 00:16:23;;;;;;;0.73;0.60;;;14.80;61.30;;;;;;5114292;28;20123;-74
2022/05/15 00:18:50;;;;;;;1.63;0.85;;;14.80;61.40;;;;;;5114044;28;20048;-73
2022/05/15 00:21:17;;;;;;;1.90;0.60;;;14.70;61.50;;;;;;5114583;28;20055;-73
2022/05/15 00:23:44;;;;;;;1.42;0.70;;;14.70;61.60;;;;;;5113844;28;20040;-74
2022/05/15 00:26:10;;;;;;;2.28;0.80;;;14.70;61.70;;;;;;5114477;28;20043;-74
2022/05/15 00:28:36;;;;;;;1.27;0.75;;;14.60;61.70;;;;;;5095746;28;20087;-73
2022/05/15 00:31:03;;;;;;;1.38;0.57;;;14.60;61.70;;;;;;5095685;28;20370;-73
2022/05/15 00:33:29;;;;;;;1.20;0.70;;;14.60;61.80;;;;;;5114309;28;20118;-74
2022/05/15 00:35:54;;;;;;;0.90;0.50;;;14.60;61.90;;;;;;5113776;28;20512;-72
2022/05/15 00:38:21;;;;;;;1.70;0.60;;;14.50;61.90;;;;;;5095509;28;20043;-72
2022/05/15 00:40:48;;;;;;;1.23;0.60;;;14.60;62.00;;;;;;5113770;28;20044;-72
2022/05/15 00:43:36;;;;;;;0.57;0.45;;;14.50;62.10;;;;;;5113993;28;20102;-71
2022/05/15 00:46:03;;;;;;;1.65;0.60;;;14.50;62.10;;;;;;5112308;28;20043;-72
2022/05/15 00:48:29;;;;;;;1.35;0.65;;;14.50;62.20;;;;;;5113576;28;20127;-72
2022/05/15 00:50:56;;;;;;;0.98;0.60;;;14.40;62.20;;;;;;5113288;28;20158;-71
2022/05/15 00:53:22;;;;;;;0.73;0.50;;;14.40;62.30;;;;;;5095259;28;20047;-73
2022/05/15 00:55:50;;;;;;;1.45;0.65;;;14.40;62.40;;;;;;5113993;28;20087;-72
2022/05/15 00:58:23;;;;;;;2.10;0.60;;;14.40;62.50;;;;;;5095288;28;20094;-72
2022/05/15 01:00:49;;;;;;;1.23;0.60;;;14.40;62.50;;;;;;5113307;28;20484;-73
2022/05/15 01:03:19;;;;;;;2.15;0.65;;;14.30;62.50;;;;;;5113783;28;20482;-72
2022/05/15 01:05:48;;;;;;;3.05;0.73;;;14.30;62.60;;;;;;5113395;28;20054;-72
2022/05/15 01:08:14;;;;;;;2.28;0.60;;;14.30;62.60;;;;;;5113877;28;20119;-74
2022/05/15 01:10:44;;;;;;;1.75;0.75;;;14.30;62.70;;;;;;5113234;28;20031;-73
2022/05/15 01:13:11;;;;;;;1.27;0.77;;;14.30;62.70;;;;;;5113196;28;20039;-75
2022/05/15 01:15:38;;;;;;;1.35;0.68;;;14.20;62.70;;;;;;5113196;28;20123;-72
2022/05/15 01:18:05;;;;;;;1.75;0.60;;;14.20;62.80;;;;;;5094865;28;20046;-72
2022/05/15 01:20:32;;;;;;;3.05;0.90;;;14.20;62.80;;;;;;5113057;28;20123;-72
2022/05/15 01:22:59;;;;;;;1.20;0.63;;;14.20;62.90;;;;;;5113261;28;20539;-72
2022/05/15 01:25:29;;;;;;;1.83;0.68;;;14.20;63.00;;;;;;5112191;28;20039;-72
2022/05/15 01:28:03;;;;;;;2.42;0.80;;;14.10;62.90;;;;;;5094578;28;20039;-72
2022/05/15 01:30:30;;;;;;;2.22;0.65;;;14.10;63.00;;;;;;5113069;28;20445;-72
2022/05/15 01:32:56;;;;;;;0.80;0.43;;;14.10;63.00;;;;;;5113323;28;20114;-72
2022/05/15 01:35:23;;;;;;;1.30;0.60;;;14.10;63.00;;;;;;5113357;28;20139;-72
2022/05/15 01:37:48;;;;;;;1.88;0.80;;;14.00;63.00;;;;;;5112681;28;20493;-72
2022/05/15 01:40:15;;;;;;;1.20;0.50;;;14.10;63.10;;;;;;5112599;28;20043;-72
2022/05/15 01:42:41;;;;;;;1.55;0.65;;;14.10;63.10;;;;;;5112653;28;20441;-71
2022/05/15 01:45:08;;;;;;;3.10;0.65;;;14.00;63.10;;;;;;5112622;28;20039;-72
2022/05/15 01:47:34;;;;;;;1.92;0.70;;;14.00;63.10;;;;;;5094425;28;20078;-72
2022/05/15 01:50:00;;;;;;;1.45;0.55;;;14.10;63.30;;;;;;5112511;28;20027;-72
2022/05/15 01:52:26;;;;;;;2.13;0.90;;;14.00;63.30;;;;;;5112655;28;20092;-72
2022/05/15 01:54:52;;;;;;;3.22;0.85;;;14.00;63.20;;;;;;5094857;28;20394;-72
2022/05/15 01:57:19;;;;;;;1.08;0.77;;;14.00;63.20;;;;;;5112408;28;20039;-72
2022/05/15 01:59:45;;;;;;;2.67;0.82;;;14.00;63.30;;;;;;5113357;28;20028;-71
2022/05/15 02:02:10;;;;;;;1.88;0.50;;;14.00;63.40;;;;;;5113801;28;20036;-72
2022/05/15 02:04:36;;;;;;;0.63;0.40;;;13.90;63.30;;;;;;5112347;28;20044;-72
2022/05/15 02:07:03;;;;;;;1.98;0.70;;;14.00;63.40;;;;;;5112580;28;20059;-72
2022/05/15 02:09:28;;;;;;;1.05;0.70;;;13.90;63.50;;;;;;5114384;28;20036;-74
2022/05/15 02:11:54;;;;;;;2.10;0.60;;;14.00;63.60;;;;;;5115916;28;20404;-74
2022/05/15 02:14:20;;;;;;;1.05;0.55;;;13.90;63.60;;;;;;5116538;28;20492;-74
2022/05/15 02:16:45;;;;;;;0.73;0.50;;;13.90;63.60;;;;;;5113143;28;20438;-71
2022/05/15 02:19:11;;;;;;;0.85;0.55;;;13.80;63.60;;;;;;5114993;28;20036;-74
2022/05/15 02:21:37;;;;;;;0.73;0.47;;;13.80;63.60;;;;;;5082031;28;20503;-73
2022/05/15 02:24:03;;;;;;;1.45;0.52;;;13.80;63.70;;;;;;5116463;28;20040;-74
2022/05/15 02:26:29;;;;;;;1.83;0.77;;;13.80;63.70;;;;;;5116921;28;20040;-73
2022/05/15 02:28:55;;;;;;;0.70;0.38;;;13.80;63.80;;;;;;5094280;28;20039;-74
2022/05/15 02:31:20;;;;;;;2.30;0.70;;;13.80;63.90;;;;;;5114520;28;20031;-74
2022/05/15 02:33:46;;;;;;;1.90;0.55;;;13.70;63.90;;;;;;5112672;28;20493;-71
2022/05/15 02:36:12;;;;;;;1.85;0.80;;;13.80;64.00;;;;;;5114272;28;20447;-72
2022/05/15 02:38:38;;;;;;;1.60;0.57;;;13.70;64.10;;;;;;5116425;28;20058;-72
2022/05/15 02:41:04;;;;;;;1.90;0.63;;;13.70;64.10;;;;;;5118767;28;20039;-73
2022/05/15 02:43:30;;;;;;;1.67;0.60;;;13.70;64.20;;;;;;5119588;28;20428;-73
2022/05/15 02:45:56;;;;;;;1.48;0.60;;;13.70;64.20;;;;;;5119717;28;20031;-73
2022/05/15 02:51:03;;;;;;;1.70;0.63;;;13.60;64.20;;;;;;5117337;28;20050;-71
2022/05/15 02:53:32;;;;;;;1.60;0.50;;;13.70;64.30;;;;;;5116201;28;20048;-72
2022/05/15 02:55:59;;;;;;;1.80;0.70;;;13.70;64.40;;;;;;5117480;28;20039;-73
2022/05/15 02:58:26;;;;;;;0.77;0.50;;;13.70;64.40;;;;;;5115866;28;20043;-72
2022/05/15 03:00:51;;;;;;;2.35;0.65;;;13.60;64.30;;;;;;5115585;28;20463;-72
2022/05/15 03:03:18;;;;;;;1.92;0.60;;;13.70;64.40;;;;;;5115828;28;20044;-72
2022/05/15 03:05:44;;;;;;;1.05;0.45;;;13.60;64.40;;;;;;5095682;28;20156;-72
2022/05/15 03:08:09;;;;;;;0.95;0.50;;;13.60;64.50;;;;;;5097036;28;20069;-72
2022/05/15 03:10:35;;;;;;;2.05;0.65;;;13.60;64.50;;;;;;5115563;28;20032;-72
2022/05/15 03:13:01;;;;;;;2.20;0.60;;;13.50;64.50;;;;;;5115215;28;20043;-72
2022/05/15 03:15:26;;;;;;;0.75;0.40;;;13.60;64.70;;;;;;5115637;28;20375;-72
2022/05/15 03:17:52;;;;;;;1.30;0.60;;;13.60;64.70;;;;;;5115145;28;20039;-72
2022/05/15 03:20:18;;;;;;;2.17;0.80;;;13.60;64.80;;;;;;5115830;28;20361;-71
2022/05/15 03:22:44;;;;;;;3.30;0.65;;;13.50;64.80;;;;;;5096800;28;20035;-72
2022/05/15 03:25:10;;;;;;;1.75;0.60;;;13.50;64.80;;;;;;5115112;28;20071;-73
2022/05/15 03:27:36;;;;;;;1.40;0.75;;;13.50;64.90;;;;;;5115475;28;20035;-71
2022/05/15 03:30:04;;;;;;;0.57;0.43;;;13.40;64.80;;;;;;5115266;28;20063;-72
2022/05/15 03:32:30;;;;;;;2.30;0.80;;;13.40;65.00;;;;;;5096395;28;20040;-72
2022/05/15 03:34:56;;;;;;;1.05;0.50;;;13.40;65.00;;;;;;5115129;28;20513;-72
2022/05/15 03:37:22;;;;;;;1.90;0.60;;;13.40;65.10;;;;;;5115067;28;20039;-72
2022/05/15 03:39:47;;;;;;;1.83;0.60;;;13.40;65.20;;;;;;5114915;28;20485;-72
2022/05/15 03:42:13;;;;;;;1.65;0.50;;;13.30;65.20;;;;;;5114990;28;20101;-72
2022/05/15 03:44:39;;;;;;;0.90;0.52;;;13.30;65.40;;;;;;5114581;28;20032;-72
2022/05/15 03:47:05;;;;;;;1.35;0.70;;;13.30;65.40;;;;;;5113836;28;20130;-72
2022/05/15 03:49:31;;;;;;;1.45;0.60;;;13.30;65.40;;;;;;5096375;28;20114;-72
2022/05/15 03:51:57;;;;;;;1.30;0.70;;;13.30;65.60;;;;;;5114578;28;20400;-72
2022/05/15 03:54:23;;;;;;;1.95;0.60;;;13.20;65.60;;;;;;5096306;28;20054;-73
2022/05/15 03:56:49;;;;;;;0.98;0.57;;;13.20;65.70;;;;;;5114089;28;20039;-72
2022/05/15 03:59:31;;;;;;;2.67;0.82;;;13.20;65.80;;;;;;5115073;28;20040;-73
2022/05/15 04:01:58;;;;;;;1.83;0.68;;;13.20;65.80;;;;;;5096323;28;20050;-73
2022/05/15 04:04:23;;;;;;;1.45;0.70;;;13.10;65.80;;;;;;5097265;28;20071;-73
2022/05/15 04:06:49;;;;;;;2.10;0.68;;;13.10;65.80;;;;;;5097189;28;20066;-72
2022/05/15 04:09:15;;;;;;;3.53;0.80;;;13.10;66.00;;;;;;5080189;28;20075;-73
2022/05/15 04:11:41;;;;;;;2.35;0.70;;;13.00;65.90;;;;;;5115709;28;20054;-73
2022/05/15 04:14:07;;;;;;;0.98;0.50;;;13.10;66.10;;;;;;5115710;28;20374;-73
2022/05/15 04:16:33;;;;;;;1.45;0.45;;;13.10;66.10;;;;;;5097317;28;20093;-72
2022/05/15 04:18:59;;;;;;;0.95;0.50;;;13.10;66.10;;;;;;5115041;28;20047;-73
2022/05/15 04:21:25;;;;;;;1.65;0.77;;;13.00;66.10;;;;;;5115502;28;20043;-73
2022/05/15 04:23:51;;;;;;;1.67;0.70;;;13.10;66.20;;;;;;5115653;28;20039;-73
2022/05/15 04:26:17;;;;;;;1.17;0.50;;;13.00;66.20;;;;;;5097720;28;20086;-72
2022/05/15 04:28:43;;;;;;;2.08;0.73;;;13.10;66.20;;;;;;5115838;28;20038;-74
2022/05/15 04:31:09;;;;;;;1.23;0.57;;;13.10;66.30;;;;;;5115195;28;20035;-72
2022/05/15 04:33:35;;;;;;;2.35;0.68;;;13.10;66.30;;;;;;5114726;28;20561;-73
2022/05/15 04:36:01;;;;;;;2.70;0.57;;;13.10;66.30;;;;;;5114907;28;20093;-72
2022/05/15 04:38:27;;;;;;;2.05;0.60;;;13.10;66.30;;;;;;5115090;28;20038;-73
2022/05/15 04:40:54;;;;;;;0.73;0.30;;;13.10;66.30;;;;;;5080077;28;20090;-73
2022/05/15 04:43:19;;;;;;;0.57;0.40;;;13.10;66.30;;;;;;5115459;28;20404;-72
2022/05/15 04:45:45;;;;;;;0.77;0.50;;;13.10;66.30;;;;;;5115091;28;20042;-73
2022/05/15 04:48:11;;;;;;;1.65;0.50;;;13.10;66.40;;;;;;5115452;28;20031;-73
2022/05/15 04:50:37;;;;;;;1.60;0.80;;;13.10;66.40;;;;;;5115096;28;20047;-72
2022/05/15 04:53:05;;;;;;;1.10;0.65;;;13.10;66.40;;;;;;5096613;28;20515;-73
2022/05/15 04:55:31;;;;;;;0.75;0.40;;;13.10;66.50;;;;;;5115387;28;20050;-73
2022/05/15 04:57:57;;;;;;;1.27;0.57;;;13.10;66.50;;;;;;5096725;28;20044;-73
2022/05/15 05:00:23;;;;;;;1.65;0.70;;;13.10;66.40;;;;;;5113277;28;20099;-73
2022/05/15 05:02:49;;;;;;;1.95;0.90;;;13.20;66.50;;;;;;5113726;28;20040;-73
2022/05/15 05:05:16;;;;;;;2.72;0.68;;;13.20;66.50;;;;;;5114114;28;20542;-73
2022/05/15 05:07:41;;;;;;;1.58;0.70;;;13.30;66.60;;;;;;5112865;28;20392;-73
2022/05/15 05:10:09;;;;;;;0.60;0.55;;;13.20;66.50;;;;;;5114247;28;20035;-73
2022/05/15 05:12:36;;;;;;;0.85;0.40;;;13.30;66.60;;;;;;5095639;28;20035;-73
2022/05/15 05:15:03;;;;;;;0.57;0.43;;;13.30;66.50;;;;;;5113835;28;20485;-72
2022/05/15 05:17:28;;;;;;;1.58;0.80;;;13.30;66.50;;;;;;5114198;28;20488;-73
2022/05/15 05:19:54;;;;;;;1.00;0.50;;;13.40;66.40;;;;;;5114146;28;20131;-73
2022/05/15 05:22:20;;;;;;;0.95;0.52;;;13.40;66.40;;;;;;5099118;28;20075;-73
2022/05/15 05:24:45;;;;;;;1.20;0.65;;;13.40;66.30;;;;;;5114426;28;20042;-73
2022/05/15 05:27:11;;;;;;;1.33;0.68;;;13.50;66.30;;;;;;5095974;28;20044;-73
2022/05/15 05:29:37;;;;;;;2.05;0.50;;;13.50;66.30;;;;;;5114359;28;20036;-73
2022/05/15 05:32:03;;;;;;;1.92;0.75;;;13.60;66.30;;;;;;5114065;28;20401;-73
2022/05/15 05:34:29;;;;;;;1.27;0.60;;;13.60;66.30;;;;;;5114100;28;20120;-74
2022/05/15 05:36:55;;;;;;;1.27;0.70;;;13.60;66.30;;;;;;5114026;28;20035;-73
2022/05/15 05:39:21;;;;;;;0.90;0.50;;;13.60;66.20;;;;;;5114491;28;20050;-73
2022/05/15 05:41:47;;;;;;;1.30;0.70;;;13.70;66.30;;;;;;5097175;28;20040;-73
2022/05/15 05:44:13;;;;;;;0.75;0.50;;;13.70;66.30;;;;;;5114148;28;20397;-73
2022/05/15 05:46:39;;;;;;;0.85;0.57;;;13.70;66.20;;;;;;5113604;28;20044;-73
2022/05/15 05:49:04;;;;;;;2.25;0.68;;;13.70;66.20;;;;;;5113940;28;20050;-73
2022/05/15 05:51:30;;;;;;;1.85;0.47;;;13.80;66.30;;;;;;5094704;28;20485;-74
2022/05/15 05:53:56;;;;;;;0.95;0.65;;;13.80;66.30;;;;;;5113510;28;20092;-74
2022/05/15 05:56:21;;;;;;;2.97;0.70;;;13.80;66.20;;;;;;5113563;28;20039;-73
2022/05/15 05:58:47;;;;;;;1.00;0.50;;;13.90;66.30;;;;;;5114425;28;20039;-73
2022/05/15 06:01:13;;;;;;;1.77;0.73;;;13.90;66.20;;;;;;5114834;28;20116;-73
2022/05/15 06:06:17;;;;;;;0.82;0.55;;;14.00;66.20;;;;;;5113907;28;20048;-73
2022/05/15 06:08:43;;;;;;;1.45;0.50;;;14.00;66.20;;;;;;5115048;28;20032;-73
2022/05/15 06:11:09;;;;;;;0.93;0.52;;;14.10;66.20;;;;;;5116965;28;20035;-73
2022/05/15 06:13:35;;;;;;;0.47;0.47;;;14.10;66.20;;;;;;5118200;28;20516;-73
2022/05/15 06:16:02;;;;;;;1.60;0.70;;;14.10;66.10;;;;;;5117157;28;20047;-73
2022/05/15 06:18:28;;;;;;;0.52;0.50;;;14.20;66.10;;;;;;5117369;28;20075;-73
2022/05/15 06:20:53;;;;;;;0.98;0.60;;;14.20;66.10;;;;;;5117363;28;20081;-73
2022/05/15 06:23:19;;;;;;;1.02;0.50;;;14.30;66.10;;;;;;5117364;28;20096;-74
2022/05/15 06:25:45;;;;;;;1.15;0.60;;;14.30;66.00;;;;;;5121331;28;20512;-71
2022/05/15 06:28:11;;;;;;;0.93;0.60;;;14.30;66.00;;;;;;5117658;28;20031;-72
2022/05/15 06:30:37;;;;;;;1.73;0.80;;;14.40;66.00;;;;;;5117968;28;20043;-72
2022/05/15 06:33:04;;;;;;;1.63;0.80;;;14.40;65.90;;;;;;5097901;28;20112;-71
2022/05/15 06:35:30;;;;;;;1.35;0.80;;;14.50;65.90;;;;;;5116155;28;20063;-72
2022/05/15 06:37:59;;;;;;;1.92;0.90;;;14.60;65.80;;;;;;5116000;28;20090;-71
2022/05/15 06:40:25;;;;;;;1.40;0.80;;;14.70;65.70;;;;;;5097490;28;20042;-72
2022/05/15 06:42:52;;;;;;;1.63;0.80;;;14.70;65.50;;;;;;5117501;28;20036;-71
2022/05/15 06:45:17;;;;;;;1.83;0.70;;;14.90;65.50;;;;;;5098154;28;20074;-71
2022/05/15 06:47:43;;;;;;;1.55;0.70;;;14.90;65.20;;;;;;5115696;28;20070;-72
2022/05/15 06:50:10;;;;;;;2.08;0.80;;;15.00;65.10;;;;;;5115830;28;20031;-72
2022/05/15 06:52:37;;;;;;;2.40;0.63;;;15.10;65.10;;;;;;5097818;28;20031;-72
2022/05/15 06:55:06;;;;;;;1.60;0.60;;;15.20;65.00;;;;;;5115792;28;20036;-72
2022/05/15 06:57:33;;;;;;;1.83;0.80;;;15.30;64.90;;;;;;5115735;28;20036;-72
2022/05/15 07:00:01;;;;;;;1.63;0.85;;;15.40;64.80;;;;;;5097601;28;20039;-72
2022/05/15 07:02:28;;;;;;;2.53;1.08;;;15.60;64.70;;;;;;5115499;28;20043;-72
2022/05/15 07:04:54;;;;;;;1.88;0.73;;;15.70;64.60;;;;;;5115373;28;20083;-72
2022/05/15 07:07:20;;;;;;;1.20;0.68;;;15.80;64.40;;;;;;5115665;28;20051;-71
2022/05/15 07:09:47;;;;;;;1.25;0.77;;;16.00;64.30;;;;;;5116087;28;20114;-71
2022/05/15 07:12:13;;;;;;;2.35;1.05;;;16.10;64.10;;;;;;5115735;28;20131;-71
2022/05/15 07:14:39;;;;;;;1.65;1.00;;;16.10;63.90;;;;;;5115314;28;20556;-72
2022/05/15 07:17:05;;;;;;;1.80;0.90;;;16.30;63.90;;;;;;5115522;28;20063;-72
2022/05/15 07:19:31;;;;;;;1.75;0.90;;;16.40;63.80;;;;;;5117452;28;20048;-72
2022/05/15 07:21:57;;;;;;;1.92;0.75;;;16.70;63.60;;;;;;5114118;28;20044;-72
2022/05/15 07:24:23;;;;;;;2.72;0.85;;;16.80;63.40;;;;;;5096704;28;20135;-72
2022/05/15 07:26:49;;;;;;;1.88;0.82;;;17.00;63.20;;;;;;5096942;28;20040;-72
2022/05/15 07:29:16;;;;;;;1.73;0.80;;;17.20;62.90;;;;;;5115337;28;20118;-72
2022/05/15 07:31:42;;;;;;;1.92;0.88;;;17.50;62.80;;;;;;5115501;28;20116;-72
2022/05/15 07:34:08;;;;;;;1.48;0.75;;;17.60;62.50;;;;;;5097153;28;20051;-72
2022/05/15 07:36:35;;;;;;;1.55;0.90;;;17.80;62.30;;;;;;5115553;28;20036;-71
2022/05/15 07:39:01;;;;;;;2.00;1.10;;;17.90;62.10;;;;;;5097615;28;20035;-72
2022/05/15 07:41:26;;;;;;;2.05;1.00;;;18.00;62.00;;;;;;5115525;28;20046;-72
2022/05/15 07:43:52;;;;;;;2.30;0.93;;;18.00;62.80;;;;;;5115673;28;20100;-72
2022/05/15 07:46:18;;;;;;;1.35;0.90;;;18.00;62.20;;;;;;5080669;28;20035;-72
2022/05/15 07:48:44;;;;;;;1.83;1.02;;;18.20;62.20;;;;;;5080701;28;20039;-73
2022/05/15 07:51:09;;;;;;;1.48;0.70;;;18.40;62.80;;;;;;5116317;28;20067;-72
2022/05/15 07:53:38;;;;;;;3.08;1.30;;;18.60;62.10;;;;;;5116378;28;20044;-72
2022/05/15 07:56:09;;;;;;;2.40;0.93;;;18.90;61.80;;;;;;5116327;28;20043;-73
2022/05/15 07:58:36;;;;;;;2.38;0.98;;;18.90;61.60;;;;;;5116206;28;20435;-73
2022/05/15 08:01:04;;;;;;;1.15;0.82;;;19.20;61.50;;;;;;5116985;28;20031;-72
2022/05/15 08:03:38;;;;;;;1.52;0.80;;;19.40;61.20;;;;;;5115576;28;20050;-72
2022/05/15 08:08:45;;;;;;;;;;;19.80;60.80;;;;;;5115515;28;20039;-72
2022/05/15 08:11:11;;;;;;;1.55;0.63;;;20.00;60.80;;;;;;5114864;28;19998;-72
2022/05/15 08:13:37;;;;;;;1.63;1.00;;;20.20;60.60;;;;;;5114988;28;20055;-72
2022/05/15 08:16:03;;;;;;;1.42;0.75;;;20.40;60.50;;;;;;5115491;28;20046;-72
2022/05/15 08:23:51;;;;;;;1.98;0.93;;;20.70;60.50;;;;;;5114392;28;20047;-72
2022/05/15 08:26:17;;;;;;;2.85;1.00;;;20.90;60.40;;;;;;5096700;28;20040;-72
2022/05/15 08:28:43;;;;;;;0.75;0.70;;;21.10;60.30;;;;;;5114242;28;20534;-72
2022/05/15 08:31:10;;;;;;;0.95;0.70;;;21.20;60.10;;;;;;5114744;28;20039;-72
2022/05/15 08:33:37;;;;;;;1.42;0.70;;;21.40;60.10;;;;;;5113889;28;20043;-72
2022/05/15 08:36:05;;;;;;;1.02;0.70;;;21.50;60.10;;;;;;5114438;28;20039;-72
2022/05/15 08:38:31;;;;;;;1.45;0.90;;;21.70;60.00;;;;;;5114661;28;20037;-72
2022/05/15 08:41:03;;;;;;;1.13;0.90;;;21.80;59.80;;;;;;5114431;28;20043;-72
2022/05/15 08:43:55;;;;;;;1.27;0.70;;;22.00;59.60;;;;;;5113855;28;20037;-72
2022/05/15 08:46:42;;;;;;;1.77;0.70;;;22.20;59.50;;;;;;5112406;28;20040;-72
2022/05/15 08:49:12;;;;;;;0.65;0.50;;;22.50;59.50;;;;;;5112954;28;20101;-72
2022/05/15 08:51:50;;;;;;;1.43;0.70;;;22.70;59.30;;;;;;5096564;28;20039;-72
2022/05/15 08:54:15;;;;;;;1.83;0.82;;;22.90;59.10;;;;;;5113813;28;20047;-71
2022/05/15 08:56:46;;;;;;;2.45;0.90;;;23.00;58.90;;;;;;5095498;28;20553;-72
2022/05/15 08:59:21;;;;;;;2.17;1.08;;;23.10;58.80;;;;;;5114474;28;20043;-72
2022/05/15 09:01:51;;;;;;;1.85;0.88;;;23.20;58.80;;;;;;5113641;28;20075;-72
2022/05/15 09:04:17;;;;;;;1.02;0.70;;;23.40;58.70;;;;;;5095889;28;20492;-72
2022/05/15 09:07:06;;;;;;;1.05;0.70;;;23.60;58.50;;;;;;5113780;28;20114;-72
2022/05/15 09:09:51;;;;;;;1.80;1.20;;;23.70;58.30;;;;;;5115522;28;20050;-72
2022/05/15 09:12:20;;;;;;;1.48;0.90;;;23.80;58.10;;;;;;5095391;28;20046;-71
2022/05/15 09:15:01;;;;;;;1.10;0.85;;;23.90;58.10;;;;;;5114439;28;20031;-73
2022/05/15 09:17:34;;;;;;;2.38;1.15;;;24.00;58.60;;;;;;5096865;28;20039;-72
2022/05/15 09:20:06;;;;;;;1.40;0.82;;;24.20;57.80;;;;;;5113319;28;20036;-71
2022/05/15 09:22:41;;;;;;;1.52;0.90;;;24.30;57.60;;;;;;5078166;28;20042;-72
2022/05/15 09:25:15;;;;;;;1.58;0.90;;;24.30;57.60;;;;;;5113179;28;20035;-72
2022/05/15 09:28:02;;;;;;;0.90;0.70;;;24.40;57.50;;;;;;5113857;28;20066;-72
2022/05/15 09:30:35;;;;;;;1.38;0.88;;;24.40;57.40;;;;;;5113238;28;20046;-72
2022/05/15 09:33:01;;;;;;;1.67;0.80;;;24.40;57.60;;;;;;5113222;28;20044;-72
2022/05/15 09:35:33;;;;;;;1.15;0.70;;;24.60;57.50;;;;;;5113186;28;20044;-70
2022/05/15 09:43:30;;;;;;;1.38;0.65;;;24.90;57.10;;;;;;5096804;28;20102;-71
2022/05/15 09:43:31;;;;;;;2.65;0.80;;;25.00;56.80;;;;;;5094579;28;20059;-72
2022/05/15 09:45:59;;;;;;;1.90;0.68;;;25.20;56.70;;;;;;5112657;28;20461;-72
2022/05/15 09:48:38;;;;;;;1.17;0.80;;;25.20;56.40;;;;;;5111755;28;20054;-72
2022/05/15 09:51:08;;;;;;;1.50;0.77;;;25.30;56.30;;;;;;5112289;28;20055;-72
2022/05/15 09:53:41;;;;;;;1.38;0.60;;;25.40;56.20;;;;;;5112902;28;20142;-72
2022/05/15 09:56:11;;;;;;;1.48;0.70;;;25.40;56.00;;;;;;5112632;28;20046;-73
2022/05/15 09:58:45;;;;;;;1.58;0.85;;;25.60;55.90;;;;;;5094533;28;20050;-72
2022/05/15 10:01:18;;;;;;;2.05;1.00;;;25.70;55.60;;;;;;5094620;28;20113;-74
2022/05/15 10:03:49;;;;;;;2.20;0.88;;;25.90;55.40;;;;;;5113210;28;20052;-72
2022/05/15 10:06:19;;;;;;;1.15;0.50;;;25.90;55.40;;;;;;5112682;28;20046;-73
2022/05/15 10:08:45;;;;;;;1.50;0.88;;;25.80;55.30;;;;;;5113061;28;20119;-73
2022/05/15 10:11:20;;;;;;;1.00;0.70;;;25.80;55.50;;;;;;5112667;28;20035;-73
2022/05/15 10:13:52;;;;;;;1.48;0.95;;;25.80;55.30;;;;;;5094960;28;20048;-73
2022/05/15 10:16:24;;;;;;;1.13;0.80;;;25.90;55.20;;;;;;5112945;28;20101;-73
2022/05/15 10:18:57;;;;;;;0.63;0.60;;;26.00;55.10;;;;;;5113256;28;20035;-73
2022/05/15 10:21:32;;;;;;;2.58;1.00;;;26.00;55.00;;;;;;5094460;28;20070;-73
2022/05/15 10:24:04;;;;;;;1.30;0.90;;;26.10;54.70;;;;;;5110682;28;20035;-73
2022/05/15 10:26:46;;;;;;;0.73;0.60;;;26.20;54.60;;;;;;5094385;28;20065;-73
2022/05/15 10:29:21;;;;;;;1.55;0.77;;;26.30;54.40;;;;;;5094025;28;20108;-73
2022/05/15 10:31:53;;;;;;;1.40;0.90;;;26.40;54.20;;;;;;5111388;28;20036;-73
2022/05/15 10:34:25;;;;;;;1.27;0.80;;;26.20;54.10;;;;;;5112856;28;20094;-73
2022/05/15 10:37:17;;;;;;;1.05;0.73;;;26.20;54.30;;;;;;5094360;28;20397;-73
2022/05/15 10:40:18;;;;;;;1.05;0.70;;;26.30;54.10;;;;;;5112092;28;20071;-73
2022/05/15 10:42:51;;;;;;;;;;;26.30;53.80;;;;;;5097240;28;20059;-73
2022/05/15 10:45:26;;;;;;;0.50;0.50;;;26.40;54.00;;;;;;5112074;28;19915;-73
2022/05/15 10:48:18;;;;;;;0.57;0.52;;;26.40;53.70;;;;;;5112258;28;20131;-73
2022/05/15 10:50:59;;;;;;;0.98;0.57;;;26.50;53.40;;;;;;5112304;28;20044;-73
2022/05/15 10:59:57;;;;;;;2.03;0.65;;;26.40;53.70;;;;;;5115512;28;20308;-73
2022/05/15 11:02:59;;;;;;;1.05;0.75;;;26.50;53.00;;;;;;5116057;28;20084;-73
2022/05/15 11:05:30;;;;;;;0.65;0.57;;;26.60;52.90;;;;;;5099621;28;20032;-73
2022/05/15 11:08:19;;;;;;;0.75;0.52;;;26.50;52.80;;;;;;5115590;28;20564;-73
2022/05/15 11:11:09;;;;;;;1.50;0.83;;;26.50;52.60;;;;;;5115282;28;20047;-73
2022/05/15 11:13:59;;;;;;;2.25;0.80;;;26.40;52.50;;;;;;5081699;28;20031;-73
2022/05/15 11:16:55;;;;;;;1.08;0.63;;;26.40;52.40;;;;;;5114734;28;20122;-73
2022/05/15 11:19:38;;;;;;;0.88;0.70;;;26.30;52.40;;;;;;5098650;28;20066;-73
2022/05/15 11:22:18;;;;;;;2.45;0.70;;;26.10;52.50;;;;;;5113418;28;20047;-73
2022/05/15 11:24:52;;;;;;;0.40;0.40;;;26.10;52.50;;;;;;5115295;28;20044;-72
2022/05/15 11:27:43;;;;;;;1.58;0.50;;;26.10;52.30;;;;;;5115094;28;20036;-73
2022/05/15 11:30:21;;;;;;;1.38;0.70;;;26.20;52.00;;;;;;5115197;28;20043;-74
2022/05/15 11:33:08;;;;;;;1.15;0.70;;;26.30;51.80;;;;;;5115039;28;20038;-71
2022/05/15 11:36:14;;;;;;;0.63;0.57;;;26.50;51.60;;;;;;5100114;28;20085;-72
2022/05/15 11:38:48;;;;;;;1.05;0.60;;;26.40;51.30;;;;;;5114751;28;20035;-72
2022/05/15 11:41:38;;;;;;;1.05;0.65;;;26.40;51.50;;;;;;5115050;28;20046;-75
2022/05/15 11:44:12;;;;;;;1.00;0.57;;;26.50;51.20;;;;;;5096588;28;20486;-72
2022/05/15 11:46:59;;;;;;;1.13;0.70;;;26.60;51.10;;;;;;5113543;28;20492;-75
2022/05/15 11:49:36;;;;;;;0.90;0.65;;;26.70;50.60;;;;;;5082648;28;20504;-74
2022/05/15 11:52:18;;;;;;;0.75;0.70;;;26.80;50.40;;;;;;5115367;28;20135;-74
2022/05/15 11:54:48;;;;;;;0.60;0.60;;;26.90;50.20;;;;;;5114706;28;20134;-77
2022/05/15 11:57:34;;;;;;;1.75;0.70;;;27.00;50.10;;;;;;5096934;28;20047;-76
2022/05/15 12:00:02;;;;;;;0.70;0.60;;;27.10;49.80;;;;;;5115113;28;20069;-77
2022/05/15 12:02:50;;;;;;;0.85;0.68;;;27.20;49.80;;;;;;5114647;28;20048;-76
2022/05/15 12:05:38;;;;;;;0.80;0.50;;;27.30;49.50;;;;;;5114971;28;20047;-74
2022/05/15 12:08:29;;;;;;;1.42;0.70;;;27.20;49.40;;;;;;5081917;28;20040;-76
2022/05/15 12:10:58;;;;;;;0.80;0.50;;;27.20;49.50;;;;;;5114392;28;20036;-75
2022/05/15 12:13:34;;;;;;;1.20;0.65;;;27.20;49.50;;;;;;5097778;28;20150;-74
2022/05/15 12:16:25;;;;;;;0.43;0.40;;;27.10;49.40;;;;;;5097564;28;20497;-74
2022/05/15 12:19:16;;;;;;;0.70;0.60;;;27.10;49.40;;;;;;5096400;28;20044;-75
2022/05/15 12:21:46;;;;;;;;;;;27.00;49.30;;;;;;5094852;28;20044;-72
2022/05/15 12:27:12;;;;;;;0.85;0.52;;;27.00;49.70;;;;;;5114136;28;19923;-72
2022/05/15 12:29:53;;;;;;;0.40;0.40;;;26.90;49.60;;;;;;5098125;28;20051;-73
2022/05/15 12:32:31;;;;;;;1.00;0.50;;;26.80;49.40;;;;;;5113910;28;20578;-73
2022/05/15 12:34:58;;;;;;;0.70;0.50;;;26.60;49.30;;;;;;5096033;28;20036;-73
2022/05/15 12:37:29;;;;;;;1.52;0.50;;;26.60;49.50;;;;;;5095893;28;20042;-73
2022/05/15 12:39:57;;;;;;;1.40;0.70;;;26.50;49.20;;;;;;5114658;28;20031;-72
2022/05/15 12:42:33;;;;;;;0.60;0.60;;;26.50;49.10;;;;;;5078719;28;20498;-73
2022/05/15 12:45:04;;;;;;;0.85;0.65;;;26.60;49.10;;;;;;5112375;28;20043;-74
2022/05/15 12:47:32;;;;;;;1.75;0.65;;;26.40;48.90;;;;;;5114097;28;20032;-74
2022/05/15 12:50:18;;;;;;;0.77;0.52;;;26.40;48.80;;;;;;5114071;28;20133;-71
2022/05/15 12:52:44;;;;;;;0.50;0.50;;;26.30;48.70;;;;;;5093672;28;20044;-71
2022/05/15 12:55:23;;;;;;;0.60;0.55;;;26.30;48.70;;;;;;5113510;28;20039;-75
2022/05/15 12:57:51;;;;;;;0.52;0.52;;;26.20;48.60;;;;;;5094333;28;20401;-73
2022/05/15 13:00:20;;;;;;;1.00;0.70;;;26.30;48.70;;;;;;5114174;28;20043;-73
2022/05/15 13:02:47;;;;;;;0.50;0.50;;;26.30;48.50;;;;;;5114123;28;20051;-72
2022/05/15 13:05:32;;;;;;;0.55;0.47;;;26.30;48.40;;;;;;5113838;28;20040;-71
2022/05/15 13:08:04;;;;;;;1.02;0.68;;;26.40;48.20;;;;;;5111994;28;20051;-73
2022/05/15 13:10:32;;;;;;;0.80;0.60;;;26.40;48.10;;;;;;5113406;28;20126;-73
2022/05/15 13:13:04;;;;;;;1.25;0.60;;;26.40;48.00;;;;;;5113227;28;20031;-74
2022/05/15 13:15:32;;;;;;;0.65;0.47;;;26.40;47.70;;;;;;5113833;28;20473;-73
2022/05/15 13:18:06;;;;;;;0.60;0.43;;;26.30;47.70;;;;;;5095096;28;20043;-73
2022/05/15 13:20:37;;;;;;;1.20;0.57;;;26.30;47.70;;;;;;5112371;28;20147;-72
2022/05/15 13:23:03;;;;;;;0.45;0.45;;;26.30;47.70;;;;;;5113687;28;20036;-73
2022/05/15 13:25:36;;;;;;;0.75;0.50;;;26.40;47.60;;;;;;5113031;28;20040;-72
2022/05/15 13:28:03;;;;;;;0.75;0.60;;;26.40;47.40;;;;;;5111430;28;20058;-72